Croswell, Michigan
Current Conditions -  °F | °C
As of 4:00 PM on Friday 28 Nov 2014 (Local Time) from CYZR Reporting Station
Broken Clouds Broken Clouds  
Wind Chill: 16°   Ceiling: 6000
Heat Index: 25°   Visibility: 9mi
Dew Point: 14°   Wind: 8mph
Humidity: 64%   Direction: 190°S
Pressure: 30.19"   Gusts: NA
Location:  43.28°N, 82.62°W
Report Text: CYZR 282100Z AUTO 19007KT 9SM BKN060 BKN120 M04/M10 A3019 RMK SLP234
Loading
Personal Weather Stations






























Interactive Weather Map New forecast layout! Learn more

10-Day Weather Forecast

Advertisements
Track Severe Weather on mobile